Fairlawn, Ohio
Current Conditions -  °F | °C
As of 7:54 AM on Saturday 20 Dec 2014 (Local Time) from KAKR Reporting Station
Overcast Overcast  
Wind Chill: 24°   Ceiling: 2200
Heat Index: 29°   Visibility: 10mi
Dew Point: 19°   Wind: 5mph
Humidity: 67%   Direction: 10°N
Pressure: 30.27"   Gusts: NA
Location:  41.0812°N, 81.5191°W
Report Text: KAKR 201254Z AUTO 01004KT 10SM OVC022 M02/M07 A3027 RMK AO2 SLP262 T10171072 $
Loading
Personal Weather Stations






























Interactive Weather Map New forecast layout! Learn more

10-Day Weather Forecast

Advertisements
Track Severe Weather on mobile